Temp: 4.4°C   Baro: 1017.4mb
  Wind: 0.0mph   Dir: NNW (342°)
  Rain: 0.0mm (0.0mm/hr)
  Solar: 0W/m2  Hum: 83%

Historic data

Bath Spa Weather Station Historical Data
Daily Summary for August 15, 2021 Units:  Metric    English   Both
Daily Weekly Monthly Yearly Custom
  High: Low: Average:
Temperature: 9.4 °C 7.7 °C 8.5 °C
Dew Point: 9 °C 7.3 °C 8.2 °C
Humidity: 96% 92% 95%
Wind Speed: 3.5km/h 0km/h 0.5km/h
Wind Gust: 6.4km/h - -
Wind- - NNE
Pressure: 1028.3 hPa 1027 hPa -
Precipitation: 0 mm    
Historical Graphs
 
 
Tabular Data for August 15, 2021
Time Temperature Dew Point Pressure Wind Wind Speed Wind Gust Humidity Rainfall Rate (Hourly) solar
00:04 9.4 °C 8.7 °C 1027.7 hPa Calm     92% 0 mm 0 W/m2
00:09 9.4 °C 8.7 °C 1027.7 hPa Calm     92% 0 mm 0 W/m2
00:14 9.4 °C 8.7 °C 1027.7 hPa Calm     92% 0 mm 0 W/m2
00:19 9.4 °C 8.7 °C 1027.7 hPa Calm     92% 0 mm 0 W/m2
00:24 9.4 °C 8.7 °C 1027.7 hPa Calm     92% 0 mm 0 W/m2
00:29 9.3 °C 8.7 °C 1027.7 hPa Calm     92% 0 mm 0 W/m2
00:34 9.3 °C 8.6 °C 1027.7 hPa Calm     92% 0 mm 0 W/m2
00:39 9.3 °C 8.6 °C 1027.7 hPa Calm     92% 0 mm 0 W/m2
00:44 9.3 °C 8.6 °C 1027.7 hPa Calm     92% 0 mm 0 W/m2
00:49 9.3 °C 8.6 °C 1027.3 hPa Calm     92% 0 mm 0 W/m2
00:54 9.3 °C 8.6 °C 1027.3 hPa Calm     92% 0 mm 0 W/m2
00:59 9.3 °C 8.7 °C 1027.3 hPa Calm     92.4% 0 mm 0 W/m2
01:04 9.3 °C 8.7 °C 1027.3 hPa Calm     92.8% 0 mm 0 W/m2
01:09 9.2 °C 8.7 °C 1027.3 hPa Calm     93% 0 mm 0 W/m2
01:14 9.2 °C 8.6 °C 1027.3 hPa Calm     93% 0 mm 0 W/m2
01:19 9.2 °C 8.6 °C 1027.3 hPa Calm     92.8% 0 mm 0 W/m2
01:24 9.2 °C 8.5 °C 1027.3 hPa Calm     92% 0 mm 0 W/m2
01:29 9.1 °C 8.4 °C 1027.3 hPa Calm     92.2% 0 mm 0 W/m2
01:34 9.1 °C 8.5 °C 1027.3 hPa Calm     93% 0 mm 0 W/m2
01:39 9.1 °C 8.5 °C 1027.3 hPa Calm     93% 0 mm 0 W/m2
01:44 9.1 °C 8.5 °C 1027.3 hPa Calm     93% 0 mm 0 W/m2
01:49 9.1 °C 8.4 °C 1027.3 hPa Calm     93% 0 mm 0 W/m2
01:54 9 °C 8.4 °C 1027.3 hPa Calm     93% 0 mm 0 W/m2
01:59 8.9 °C 8.3 °C 1027.3 hPa Calm     93% 0 mm 0 W/m2
02:04 8.9 °C 8.3 °C 1027.3 hPa Calm     93% 0 mm 0 W/m2
02:09 8.9 °C 8.3 °C 1027.3 hPa Calm     93% 0 mm 0 W/m2
02:14 8.9 °C 8.3 °C 1027.3 hPa Calm     93% 0 mm 0 W/m2
02:19 8.9 °C 8.3 °C 1027.7 hPa Calm     93% 0 mm 0 W/m2
02:24 8.9 °C 8.3 °C 1027.3 hPa Calm     93% 0 mm 0 W/m2
02:29 8.9 °C 8.3 °C 1027.3 hPa Calm     93% 0 mm 0 W/m2
02:34 8.8 °C 8.2 °C 1027.3 hPa Calm     93% 0 mm 0 W/m2
02:39 8.8 °C 8.2 °C 1027.3 hPa Calm     93% 0 mm 0 W/m2
02:44 8.8 °C 8.2 °C 1027.3 hPa Calm     93% 0 mm 0 W/m2
02:49 8.8 °C 8.2 °C 1027.3 hPa Calm     93% 0 mm 0 W/m2
02:54 8.8 °C 8.2 °C 1027.3 hPa Calm     93% 0 mm 0 W/m2
02:59 8.8 °C 8.2 °C 1027.3 hPa Calm     93% 0 mm 0 W/m2
03:04 8.7 °C 8.2 °C 1027.3 hPa Calm     93.2% 0 mm 0 W/m2
03:09 8.7 °C 8.3 °C 1027.3 hPa Calm     94% 0 mm 0 W/m2
03:14 8.7 °C 8.3 °C 1027.3 hPa Calm     94% 0 mm 0 W/m2
03:19 8.7 °C 8.3 °C 1027.3 hPa Calm     94% 0 mm 0 W/m2
03:24 8.7 °C 8.3 °C 1027.3 hPa Calm     94% 0 mm 0 W/m2
03:29 8.7 °C 8.3 °C 1027.3 hPa Calm     94% 0 mm 0 W/m2
03:34 8.7 °C 8.3 °C 1027.3 hPa Calm     94% 0 mm 0 W/m2
03:39 8.7 °C 8.3 °C 1027.3 hPa Calm     94% 0 mm 0 W/m2
03:44 8.7 °C 8.3 °C 1027.3 hPa Calm     94% 0 mm 0 W/m2
03:49 8.7 °C 8.3 °C 1027.3 hPa Calm     94% 0 mm 0 W/m2
03:54 8.7 °C 8.3 °C 1027 hPa Calm     94% 0 mm 0 W/m2
03:59 8.7 °C 8.3 °C 1027 hPa Calm     94% 0 mm 0 W/m2
04:04 8.8 °C 8.4 °C 1027 hPa Calm     94% 0 mm 0 W/m2
04:09 8.8 °C 8.4 °C 1027 hPa Calm     94% 0 mm 0 W/m2
04:14 8.8 °C 8.4 °C 1027 hPa Calm     94% 0 mm 0 W/m2
04:19 8.8 °C 8.4 °C 1027 hPa Calm     94% 0 mm 0 W/m2
04:24 8.8 °C 8.4 °C 1027 hPa Calm     94% 0 mm 0 W/m2
04:29 8.8 °C 8.4 °C 1027 hPa Calm     94% 0 mm 0 W/m2
04:34 8.8 °C 8.4 °C 1027 hPa Calm     94% 0 mm 0 W/m2
04:39 8.7 °C 8.3 °C 1027.3 hPa Calm     94% 0 mm 0 W/m2
04:44 8.7 °C 8.3 °C 1027.3 hPa Calm     94% 0 mm 0 W/m2
04:49 8.7 °C 8.3 °C 1027.3 hPa Calm     94% 0 mm 0 W/m2
04:54 8.7 °C 8.2 °C 1027.3 hPa Calm     94% 0 mm 0 W/m2
04:59 8.6 °C 8.2 °C 1027.3 hPa Calm   6.4 km/h 94% 0 mm 0 W/m2
05:04 8.5 °C 8.1 °C 1027.3 hPa Calm     94% 0 mm 0 W/m2
05:09 8.5 °C 8.1 °C 1027.3 hPa Calm     94% 0 mm 0 W/m2
05:14 8.4 °C 8 °C 1027.3 hPa Calm     94% 0 mm 0 W/m2
05:19 8.4 °C 8 °C 1027.3 hPa Calm     94% 0 mm 0 W/m2
05:24 8.3 °C 7.9 °C 1027.3 hPa Calm     94% 0 mm 0 W/m2
05:29 8.3 °C 7.9 °C 1027.3 hPa Calm     94% 0 mm 0 W/m2
05:34 8.3 °C 7.9 °C 1027.3 hPa Calm     94% 0 mm 0 W/m2
05:39 8.2 °C 7.8 °C 1027.3 hPa Calm     94% 0 mm 0 W/m2
05:44 8.2 °C 7.7 °C 1027.3 hPa Calm     94% 0 mm 0 W/m2
05:49 8 °C 7.6 °C 1027.3 hPa Calm     94% 0 mm 0 W/m2
05:54 7.9 °C 7.5 °C 1027.3 hPa Calm     94% 0 mm 0 W/m2
05:59 7.8 °C 7.4 °C 1027.3 hPa Calm     94% 0 mm 0 W/m2
06:04 7.8 °C 7.4 °C 1027.3 hPa Calm     94% 0 mm 0 W/m2
06:09 7.8 °C 7.4 °C 1027.3 hPa Calm     94% 0 mm 0 W/m2
06:14 7.8 °C 7.4 °C 1027.3 hPa Calm     94% 0 mm 0 W/m2
06:19 7.7 °C 7.3 °C 1027.3 hPa Calm     94% 0 mm 0 W/m2
06:24 7.7 °C 7.3 °C 1027.3 hPa Calm     94% 0 mm 0 W/m2
06:29 7.7 °C 7.3 °C 1027.3 hPa Calm     94% 0 mm 0 W/m2
06:34 7.7 °C 7.3 °C 1027.3 hPa Calm     94% 0 mm 0 W/m2
06:39 7.7 °C 7.3 °C 1027.3 hPa Calm     94% 0 mm 0 W/m2
06:44 7.7 °C 7.3 °C 1027.3 hPa Calm     94% 0 mm 0 W/m2
06:49 7.8 °C 7.5 °C 1027.3 hPa Calm     95% 0 mm 0 W/m2
06:54 7.8 °C 7.5 °C 1027.7 hPa Calm     95% 0 mm 0 W/m2
06:59 7.8 °C 7.5 °C 1027.7 hPa Calm     95% 0 mm 0 W/m2
07:04 7.9 °C 7.6 °C 1027.7 hPa Calm     95% 0 mm 0 W/m2
07:09 7.8 °C 7.6 °C 1027.7 hPa Calm     95% 0 mm 0 W/m2
07:14 7.8 °C 7.5 °C 1027.7 hPa Calm     95% 0 mm 0 W/m2
07:19 7.9 °C 7.6 °C 1027.7 hPa Calm     95% 0 mm 0 W/m2
07:24 7.9 °C 7.6 °C 1027.7 hPa Calm     95% 0 mm 0 W/m2
07:29 7.9 °C 7.6 °C 1027.7 hPa Calm     95% 0 mm 0 W/m2
07:34 7.9 °C 7.7 °C 1028 hPa Calm     95% 0 mm 0 W/m2
07:39 8 °C 7.7 °C 1028 hPa Calm     95% 0 mm 0 W/m2
07:44 8 °C 7.7 °C 1028 hPa Calm     95% 0 mm 0 W/m2
07:49 8.1 °C 7.8 °C 1028 hPa Calm     95% 0 mm 0 W/m2
07:54 8.1 °C 7.8 °C 1028 hPa Calm     95% 0 mm 0 W/m2
07:59 8.1 °C 7.8 °C 1028 hPa Calm     95% 0 mm 5 W/m2
08:04 8.3 °C 8.1 °C 1028 hPa Calm     95% 0 mm 9 W/m2
08:09 8.9 °C 8.6 °C 1028 hPa Calm     95% 0 mm 11 W/m2
08:14 9 °C 8.7 °C 1028 hPa Calm     95% 0 mm 12 W/m2
08:19 8.7 °C 8.3 °C 1028 hPa Calm     95% 0 mm 18 W/m2
08:24 8.4 °C 8.2 °C 1028 hPa Calm     95% 0 mm 21 W/m2
08:29 8.4 °C 8.1 °C 1028 hPa Calm     95% 0 mm 23 W/m2
08:34 8.3 °C 8 °C 1028.3 hPa Calm     95% 0 mm 21 W/m2
08:39 8.3 °C 8 °C 1028.3 hPa Calm     95% 0 mm 23 W/m2
08:44 8.3 °C 8 °C 1028.3 hPa Calm     95% 0 mm 26 W/m2
08:49 8.3 °C 8.1 °C 1028.3 hPa Calm     95% 0 mm 30 W/m2
08:54 8.3 °C 8 °C 1028.3 hPa Calm   1.6 km/h 95% 0 mm 30 W/m2
08:59 8.3 °C 7.9 °C 1028.3 hPa NNE 1.9 km/h 4.8 km/h 95% 0 mm 33 W/m2
09:04 8.3 °C 7.9 °C 1028.3 hPa NNE 0.6 km/h 3.2 km/h 95% 0 mm 33 W/m2
09:09 8.3 °C 8 °C 1028.3 hPa NNE 0.3 km/h 3.2 km/h 95% 0 mm 35 W/m2
09:14 8.3 °C 8 °C 1028.3 hPa NNE 0.6 km/h 3.2 km/h 95% 0 mm 39 W/m2
09:19 8.3 °C 8 °C 1028.3 hPa NNE 0.6 km/h 3.2 km/h 95% 0 mm 40 W/m2
09:24 8.2 °C 7.9 °C 1028.3 hPa NNE 1.3 km/h 4.8 km/h 95% 0 mm 47 W/m2
09:29 8.2 °C 7.8 °C 1028.3 hPa NNE 0.6 km/h 3.2 km/h 95% 0 mm 44 W/m2
09:34 8.2 °C 7.9 °C 1028.3 hPa NNE 1.4 km/h 4.8 km/h 95% 0 mm 46 W/m2
09:39 8.2 °C 7.9 °C 1028.3 hPa NNE 1.9 km/h 4.8 km/h 95% 0 mm 47 W/m2
09:44 8.1 °C 7.8 °C 1028.3 hPa NNE 1.1 km/h 3.2 km/h 95.3% 0 mm 46 W/m2
09:49 8.1 °C 7.9 °C 1028.3 hPa Calm   4.8 km/h 95.7% 0 mm 46 W/m2
09:54 8.1 °C 7.8 °C 1028.3 hPa NNE 1.1 km/h 3.2 km/h 95.2% 0 mm 58 W/m2
09:59 8.2 °C 7.8 °C 1028.3 hPa NNE 2.1 km/h 4.8 km/h 95% 0 mm 69 W/m2
10:04 8 °C 7.9 °C 1028.3 hPa NNE 3.5 km/h 6.4 km/h 96% 0 mm 69 W/m2
10:09 8 °C 7.9 °C 1028.3 hPa NNE 2.6 km/h 6.4 km/h 96% 0 mm 69 W/m2
10:14 8.1 °C 8 °C 1028.3 hPa NNE 2.7 km/h 4.8 km/h 96% 0 mm 70 W/m2
10:19 8.1 °C 8 °C 1028.3 hPa NNE 2.6 km/h 6.4 km/h 96% 0 mm 77 W/m2
10:24 8.1 °C 8 °C 1028.3 hPa NNE 1.4 km/h 4.8 km/h 96% 0 mm 81 W/m2
10:29 8.2 °C 8.1 °C 1028.3 hPa NNE 1 km/h 3.2 km/h 96% 0 mm 91 W/m2
10:34 8.3 °C 8.2 °C 1028.3 hPa NNE 0.6 km/h 3.2 km/h 96% 0 mm 100 W/m2
10:39 8.3 °C 8.2 °C 1028.3 hPa NNE 0.3 km/h 3.2 km/h 96% 0 mm 105 W/m2
10:44 8.4 °C 8.3 °C 1028.3 hPa NNE 0.3 km/h 1.6 km/h 96% 0 mm 105 W/m2
10:49 8.4 °C 8.3 °C 1028.3 hPa NNE 1 km/h 3.2 km/h 96% 0 mm 100 W/m2
10:54 8.5 °C 8.4 °C 1028.3 hPa NNE 0.6 km/h 3.2 km/h 96% 0 mm 98 W/m2
10:59 8.7 °C 8.6 °C 1028.3 hPa NNE 0.6 km/h 3.2 km/h 96% 0 mm 95 W/m2
11:04 8.5 °C 8.4 °C 1028.3 hPa Calm   1.6 km/h 96% 0 mm 104 W/m2
11:09 8.8 °C 8.7 °C 1028.3 hPa Calm   1.6 km/h 96% 0 mm 104 W/m2
11:14 8.7 °C 8.6 °C 1028.3 hPa NNE 2.9 km/h 4.8 km/h 96% 0 mm 83 W/m2
11:19 8.6 °C 8.4 °C 1028.3 hPa NNE 2.1 km/h 4.8 km/h 96% 0 mm 74 W/m2
11:24 8.7 °C 8.6 °C 1028.3 hPa NNE 0.3 km/h 4.8 km/h 96% 0 mm 65 W/m2
11:29 9.1 °C 9 °C 1028.3 hPa Calm   1.6 km/h 96% 0 mm 88 W/m2
11:34 8.9 °C 8.8 °C 1028.3 hPa NNE 1 km/h 3.2 km/h 96% 0 mm 90 W/m2
11:39 8.6 °C 8.4 °C 1028.3 hPa Calm   3.2 km/h 96% 0 mm 104 W/m2
11:44 8.5 °C 8.4 °C 1028.3 hPa Calm   1.6 km/h 96% 0 mm 104 W/m2
11:49 8.7 °C 8.6 °C 1028.3 hPa Calm   3.2 km/h 96% 0 mm 97 W/m2
11:54 8.7 °C 8.6 °C 1028 hPa Calm   3.2 km/h 96% 0 mm 105 W/m2
11:59 8.7 °C 8.6 °C 1028.3 hPa Calm   3.2 km/h 96% 0 mm 120 W/m2
12:04 8.8 °C 8.7 °C 1028 hPa NNE 0.3 km/h 3.2 km/h 96% 0 mm 114 W/m2
12:09 8.7 °C 8.6 °C 1028.3 hPa NNE 0.3 km/h 3.2 km/h 96% 0 mm 114 W/m2
12:14 8.8 °C 8.7 °C 1028.3 hPa NNE 1 km/h 4.8 km/h 96% 0 mm 100 W/m2
12:19 8.7 °C 8.6 °C 1028.3 hPa NNE 1 km/h 4.8 km/h 96% 0 mm 120 W/m2
12:24 8.7 °C 8.6 °C 1028 hPa Calm   1.6 km/h 96% 0 mm 123 W/m2
12:29 8.8 °C 8.7 °C 1028 hPa NNE 1.9 km/h 4.8 km/h 96% 0 mm 121 W/m2
12:34 9 °C 8.9 °C 1028 hPa NNE 0.3 km/h 4.8 km/h 96% 0 mm 105 W/m2
12:39 8.8 °C 8.8 °C 1028 hPa NNE 1 km/h 3.2 km/h 96% 0 mm 104 W/m2
12:44 8.7 °C 8.6 °C 1028 hPa NNE 0.3 km/h 3.2 km/h 96% 0 mm 109 W/m2
12:49 8.7 °C 8.6 °C 1028 hPa NNE 0.8 km/h 4.8 km/h 96% 0 mm 107 W/m2
12:54 8.7 °C 8.6 °C 1028 hPa NNE 1 km/h 4.8 km/h 96% 0 mm 107 W/m2
12:59 8.8 °C 8.7 °C 1027.7 hPa NNE 1.9 km/h 4.8 km/h 96% 0 mm 107 W/m2
13:04 8.8 °C 8.7 °C 1027.7 hPa NNE 0.6 km/h 3.2 km/h 96% 0 mm 95 W/m2
13:09 8.8 °C 8.7 °C 1027.7 hPa NNE 1.8 km/h 4.8 km/h 96% 0 mm 105 W/m2
13:14 8.8 °C 8.7 °C 1027.7 hPa NNE 1.9 km/h 4.8 km/h 96% 0 mm 104 W/m2
13:19 8.8 °C 8.7 °C 1027.7 hPa NNE 1.6 km/h 3.2 km/h 96% 0 mm 100 W/m2
13:24 8.8 °C 8.8 °C 1027.7 hPa Calm   4.8 km/h 96% 0 mm 77 W/m2
13:29 8.9 °C 8.8 °C 1027.7 hPa NNE 0.3 km/h 1.6 km/h 96% 0 mm 69 W/m2
13:34 8.9 °C 8.8 °C 1027.7 hPa NNE 0.6 km/h 4.8 km/h 96% 0 mm 65 W/m2
13:39 8.9 °C 8.8 °C 1027.7 hPa NNE 2.4 km/h 4.8 km/h 96% 0 mm 63 W/m2
13:44 8.8 °C 8.7 °C 1027.7 hPa NNE 1.9 km/h 4.8 km/h 96% 0 mm 60 W/m2
13:49 8.8 °C 8.7 °C 1027.7 hPa NNE 2.1 km/h 3.2 km/h 96% 0 mm 60 W/m2
13:54 8.8 °C 8.7 °C 1027.7 hPa NNE 1.9 km/h 4.8 km/h 96% 0 mm 58 W/m2
13:59 8.7 °C 8.6 °C 1027.3 hPa Calm   4.8 km/h 96% 0 mm 56 W/m2
14:04 8.8 °C 8.7 °C 1027.3 hPa NNE 0.3 km/h 1.6 km/h 96% 0 mm 51 W/m2
14:09 8.9 °C 8.8 °C 1027.3 hPa NNE 0.6 km/h 3.2 km/h 95.8% 0 mm 54 W/m2
14:14 9.1 °C 8.8 °C 1027.3 hPa NNE 0.6 km/h 4.8 km/h 95% 0 mm 54 W/m2
14:19 8.8 °C 8.7 °C 1027.3 hPa NNE 1.3 km/h 4.8 km/h 95.8% 0 mm 54 W/m2
14:24 8.8 °C 8.7 °C 1027.3 hPa NNE 2.1 km/h 4.8 km/h 95.8% 0 mm 47 W/m2
14:29 8.7 °C 8.6 °C 1027.3 hPa NNE 1.6 km/h 4.8 km/h 95.6% 0 mm 49 W/m2
14:34 8.7 °C 8.4 °C 1027.3 hPa Calm     95% 0 mm 49 W/m2
14:39 8.7 °C 8.4 °C 1027.3 hPa NNE 1.9 km/h 4.8 km/h 95% 0 mm 49 W/m2
14:44 8.7 °C 8.4 °C 1027.3 hPa NNE 1.1 km/h 3.2 km/h 95% 0 mm 44 W/m2
14:49 8.8 °C 8.4 °C 1027.3 hPa Calm   3.2 km/h 95% 0 mm 40 W/m2
14:54 8.7 °C 8.4 °C 1027.3 hPa Calm     95% 0 mm 39 W/m2
14:59 8.7 °C 8.4 °C 1027.3 hPa Calm   1.6 km/h 95% 0 mm 35 W/m2
15:04 8.7 °C 8.4 °C 1027.3 hPa NNE 2.7 km/h 4.8 km/h 95% 0 mm 32 W/m2
15:09 8.7 °C 8.4 °C 1027.3 hPa NNE 0.3 km/h 4.8 km/h 95% 0 mm 26 W/m2
15:14 8.7 °C 8.4 °C 1027.3 hPa NNE 0.3 km/h 1.6 km/h 95% 0 mm 25 W/m2
15:19 8.8 °C 8.5 °C 1027.3 hPa Calm   1.6 km/h 95% 0 mm 21 W/m2
15:24 8.8 °C 8.5 °C 1027.3 hPa NNE 0.6 km/h 3.2 km/h 95% 0 mm 19 W/m2
15:28 8.8 °C 8.5 °C 1027.3 hPa NNE 1.6 km/h 3.2 km/h 95% 0 mm 18 W/m2
15:34 8.8 °C 8.4 °C 1027.3 hPa NNE 1.4 km/h 4.8 km/h 95% 0 mm 16 W/m2
15:39 8.7 °C 8.4 °C 1027.3 hPa NNE 1.4 km/h 4.8 km/h 95% 0 mm 14 W/m2
15:44 8.6 °C 8.3 °C 1027.3 hPa NNE 0.6 km/h 4.8 km/h 95% 0 mm 12 W/m2
15:49 8.6 °C 8.3 °C 1027.3 hPa Calm     95% 0 mm 11 W/m2
15:54 8.6 °C 8.3 °C 1027.3 hPa NNE 0.3 km/h 3.2 km/h 95% 0 mm 9 W/m2
15:59 8.6 °C 8.3 °C 1027.3 hPa NNE 1.4 km/h 3.2 km/h 95% 0 mm 5 W/m2
16:04 8.6 °C 8.3 °C 1027.3 hPa Calm   3.2 km/h 95% 0 mm 5 W/m2
16:09 8.6 °C 8.3 °C 1027.3 hPa Calm     95% 0 mm 0 W/m2
16:14 8.7 °C 8.3 °C 1027.3 hPa Calm     95% 0 mm 0 W/m2
16:19 8.7 °C 8.4 °C 1027.3 hPa NNE 0.8 km/h 3.2 km/h 95% 0 mm 0 W/m2
16:24 8.7 °C 8.4 °C 1027.3 hPa Calm   1.6 km/h 95% 0 mm 0 W/m2
16:29 8.7 °C 8.4 °C 1027.3 hPa Calm     95% 0 mm 0 W/m2
16:34 8.7 °C 8.4 °C 1027.3 hPa Calm     95% 0 mm 0 W/m2
16:39 8.7 °C 8.4 °C 1027.3 hPa Calm     95% 0 mm 0 W/m2
16:44 8.8 °C 8.5 °C 1027.3 hPa Calm     95% 0 mm 0 W/m2
16:49 8.8 °C 8.4 °C 1027.3 hPa NNE 0.3 km/h 1.6 km/h 95% 0 mm 0 W/m2
16:54 8.7 °C 8.4 °C 1027.3 hPa Calm     95% 0 mm 0 W/m2
16:59 8.8 °C 8.4 °C 1027.3 hPa Calm     95% 0 mm 0 W/m2
17:04 8.8 °C 8.5 °C 1027.3 hPa Calm     95% 0 mm 0 W/m2
17:09 8.8 °C 8.4 °C 1027.3 hPa Calm     95% 0 mm 0 W/m2
17:14 8.8 °C 8.5 °C 1027.3 hPa Calm   1.6 km/h 95% 0 mm 0 W/m2
17:19 8.8 °C 8.5 °C 1027.3 hPa Calm   1.6 km/h 95% 0 mm 0 W/m2
17:24 8.8 °C 8.5 °C 1027.3 hPa Calm     95% 0 mm 0 W/m2
17:29 8.9 °C 8.6 °C 1027.3 hPa Calm     95% 0 mm 0 W/m2
17:34 8.9 °C 8.6 °C 1027.3 hPa Calm     95% 0 mm 0 W/m2
17:39 8.9 °C 8.6 °C 1027.3 hPa NNE 0.3 km/h 1.6 km/h 95% 0 mm 0 W/m2
17:44 8.8 °C 8.5 °C 1027.3 hPa Calm   1.6 km/h 94.4% 0 mm 0 W/m2
17:49 8.9 °C 8.6 °C 1027.3 hPa Calm   1.6 km/h 95% 0 mm 0 W/m2
17:54 8.9 °C 8.6 °C 1027.3 hPa NNE 0.3 km/h 3.2 km/h 95% 0 mm 0 W/m2
17:59 8.8 °C 8.4 °C 1027.3 hPa Calm   3.2 km/h 94% 0 mm 0 W/m2
18:04 8.8 °C 8.4 °C 1027.3 hPa Calm     94% 0 mm 0 W/m2
18:09 8.8 °C 8.4 °C 1027.7 hPa Calm     94% 0 mm 0 W/m2
18:14 8.9 °C 8.6 °C 1027.7 hPa Calm     94.8% 0 mm 0 W/m2
18:19 8.9 °C 8.6 °C 1027.7 hPa Calm     95% 0 mm 0 W/m2
18:24 8.9 °C 8.6 °C 1027.3 hPa Calm     95% 0 mm 0 W/m2
18:29 8.9 °C 8.6 °C 1027.3 hPa Calm     95% 0 mm 0 W/m2
18:34 8.9 °C 8.6 °C 1027.3 hPa Calm     95% 0 mm 0 W/m2
18:39 8.9 °C 8.7 °C 1027.3 hPa Calm     94.8% 0 mm 0 W/m2
18:44 8.9 °C 8.7 °C 1027.3 hPa Calm     94.8% 0 mm 0 W/m2
18:49 8.9 °C 8.6 °C 1027.3 hPa Calm     94.2% 0 mm 0 W/m2
18:54 8.9 °C 8.6 °C 1027.3 hPa Calm     94% 0 mm 0 W/m2
18:59 8.9 °C 8.6 °C 1027.3 hPa Calm     94% 0 mm 0 W/m2
19:04 8.9 °C 8.5 °C 1027.3 hPa Calm   1.6 km/h 94% 0 mm 0 W/m2
19:09 8.9 °C 8.5 °C 1027.3 hPa Calm   1.6 km/h 94% 0 mm 0 W/m2
19:14 8.9 °C 8.5 °C 1027.3 hPa Calm     94% 0 mm 0 W/m2
19:19 8.9 °C 8.5 °C 1027.3 hPa Calm     94% 0 mm 0 W/m2
19:24 8.9 °C 8.5 °C 1027.3 hPa Calm     94% 0 mm 0 W/m2
19:29 8.9 °C 8.5 °C 1027.3 hPa NNE 1.1 km/h 3.2 km/h 94% 0 mm 0 W/m2
19:34 8.8 °C 8.4 °C 1027.3 hPa NNE 1.4 km/h 6.4 km/h 94% 0 mm 0 W/m2
19:39 8.7 °C 8.3 °C 1027.3 hPa NNE 2.7 km/h 6.4 km/h 94% 0 mm 0 W/m2
19:44 8.6 °C 8.2 °C 1027.3 hPa NNE 2.1 km/h 6.4 km/h 94% 0 mm 0 W/m2
19:49 8.6 °C 8.2 °C 1027.3 hPa NNE 1.3 km/h 4.8 km/h 94% 0 mm 0 W/m2
19:54 8.6 °C 8.2 °C 1027.3 hPa NNE 0.6 km/h 3.2 km/h 94% 0 mm 0 W/m2
19:59 8.6 °C 8.2 °C 1027.3 hPa NNE 0.3 km/h 3.2 km/h 94% 0 mm 0 W/m2
20:03 8.6 °C 8.2 °C 1027 hPa NNE 0.3 km/h 4.8 km/h 94% 0 mm 0 W/m2
20:09 8.6 °C 8.2 °C 1027 hPa NNE 0.6 km/h 3.2 km/h 94% 0 mm 0 W/m2
20:14 8.6 °C 8.2 °C 1027 hPa NNE 1 km/h 4.8 km/h 94% 0 mm 0 W/m2
20:19 8.4 °C 8.1 °C 1027 hPa Calm     94% 0 mm 0 W/m2
20:24 8.4 °C 8 °C 1027 hPa Calm     94% 0 mm 0 W/m2
20:29 8.3 °C 7.9 °C 1027 hPa Calm     94% 0 mm 0 W/m2
20:34 8.3 °C 7.9 °C 1027 hPa Calm     94% 0 mm 0 W/m2
20:39 8.3 °C 7.8 °C 1027 hPa NNE 0.3 km/h 1.6 km/h 94% 0 mm 0 W/m2
20:44 8.2 °C 7.8 °C 1027 hPa NNE 0.3 km/h 1.6 km/h 94% 0 mm 0 W/m2
20:49 8.1 °C 7.7 °C 1027 hPa Calm   1.6 km/h 94% 0 mm 0 W/m2
20:54 8.1 °C 7.7 °C 1027 hPa NNE 1 km/h 4.8 km/h 94% 0 mm 0 W/m2
20:58 8.1 °C 7.7 °C 1027 hPa Calm   1.6 km/h 94% 0 mm 0 W/m2
21:04 8.1 °C 7.7 °C 1027.3 hPa NNE 0.3 km/h 1.6 km/h 94% 0 mm 0 W/m2
21:09 8.1 °C 7.7 °C 1027.3 hPa NNE 0.3 km/h 3.2 km/h 94% 0 mm 0 W/m2
21:14 8.1 °C 7.7 °C 1027.3 hPa NNE 0.6 km/h 3.2 km/h 94% 0 mm 0 W/m2
21:19 8 °C 7.6 °C 1027.3 hPa Calm   1.6 km/h 94% 0 mm 0 W/m2
21:24 8 °C 7.6 °C 1027.3 hPa NNE 1.6 km/h 3.2 km/h 94% 0 mm 0 W/m2
21:29 8.1 °C 7.7 °C 1027.3 hPa NNE 1.4 km/h 4.8 km/h 94% 0 mm 0 W/m2
21:34 7.9 °C 7.6 °C 1027.3 hPa NNE 0.6 km/h 4.8 km/h 94% 0 mm 0 W/m2
21:39 7.9 °C 7.5 °C 1027.3 hPa NNE 3.4 km/h 6.4 km/h 94% 0 mm 0 W/m2
21:44 7.9 °C 7.5 °C 1027.3 hPa NNE 2.7 km/h 6.4 km/h 94% 0 mm 0 W/m2
21:49 7.9 °C 7.6 °C 1027.3 hPa NNE 1 km/h 4.8 km/h 94.6% 0 mm 0 W/m2
21:54 7.8 °C 7.6 °C 1027.3 hPa NNE 1 km/h 4.8 km/h 95% 0 mm 0 W/m2
21:59 7.8 °C 7.5 °C 1027.3 hPa NNE 0.6 km/h 3.2 km/h 95% 0 mm 0 W/m2
22:04 7.8 °C 7.5 °C 1027.3 hPa NNE 0.3 km/h 3.2 km/h 95% 0 mm 0 W/m2
22:09 7.8 °C 7.5 °C 1027.3 hPa NNE 0.6 km/h 3.2 km/h 95% 0 mm 0 W/m2
22:14 7.8 °C 7.5 °C 1027.3 hPa NNE 0.6 km/h 3.2 km/h 95% 0 mm 0 W/m2
22:19 7.8 °C 7.5 °C 1027.3 hPa NNE 0.6 km/h 3.2 km/h 95% 0 mm 0 W/m2
22:24 7.8 °C 7.5 °C 1027.3 hPa NNE 2.4 km/h 4.8 km/h 95% 0 mm 0 W/m2
22:29 7.7 °C 7.4 °C 1027.3 hPa NNE 0.6 km/h 4.8 km/h 95% 0 mm 0 W/m2
22:34 7.7 °C 7.4 °C 1027.3 hPa NNE 1 km/h 4.8 km/h 95% 0 mm 0 W/m2
22:39 7.7 °C 7.4 °C 1027.3 hPa NNE 1 km/h 4.8 km/h 95% 0 mm 0 W/m2
22:44 7.7 °C 7.4 °C 1027.3 hPa Calm   3.2 km/h 95% 0 mm 0 W/m2
22:49 7.7 °C 7.4 °C 1027.3 hPa Calm     95% 0 mm 0 W/m2
22:54 7.7 °C 7.4 °C 1027.3 hPa Calm   3.2 km/h 95% 0 mm 0 W/m2
22:59 7.7 °C 7.4 °C 1027.3 hPa NNE 0.3 km/h 3.2 km/h 95% 0 mm 0 W/m2
23:04 7.7 °C 7.4 °C 1027.3 hPa NNE 0.3 km/h 1.6 km/h 95% 0 mm 0 W/m2
23:09 7.8 °C 7.4 °C 1027.3 hPa NNE 0.3 km/h 3.2 km/h 95% 0 mm 0 W/m2
23:14 7.8 °C 7.4 °C 1027.3 hPa NNE 1.6 km/h 4.8 km/h 95% 0 mm 0 W/m2
23:19 7.7 °C 7.4 °C 1027.3 hPa Calm   3.2 km/h 95% 0 mm 0 W/m2
23:24 7.7 °C 7.4 °C 1027.3 hPa NNE 1.1 km/h 4.8 km/h 95% 0 mm 0 W/m2
23:29 7.7 °C 7.4 °C 1027 hPa Calm   1.6 km/h 95% 0 mm 0 W/m2
23:34 7.7 °C 7.4 °C 1027.3 hPa Calm     95% 0 mm 0 W/m2
23:39 7.7 °C 7.4 °C 1027 hPa Calm   1.6 km/h 95% 0 mm 0 W/m2
23:44 7.7 °C 7.4 °C 1027 hPa Calm   1.6 km/h 95% 0 mm 0 W/m2
23:49 7.7 °C 7.4 °C 1027 hPa NNE 0.3 km/h 1.6 km/h 95% 0 mm 0 W/m2
23:54 7.7 °C 7.4 °C 1027 hPa Calm     95% 0 mm 0 W/m2
23:59 7.7 °C 7.4 °C 1027 hPa Calm   1.6 km/h 95% 0 mm 0 W/m2
Bath Spa Weather
Compliments of Weather Underground - 2 mb